createdAt,value
2018-06-02T00:00:15.395Z,14.60
2018-06-02T00:02:43.702Z,14.60
2018-06-02T00:05:11.227Z,14.60
2018-06-02T00:07:39.526Z,14.80
2018-06-02T00:10:07.059Z,14.70
2018-06-02T00:12:35.367Z,14.70
2018-06-02T00:15:02.883Z,14.70
2018-06-02T00:17:30.423Z,14.70
2018-06-02T00:19:57.945Z,14.80
2018-06-02T00:22:25.486Z,14.80
2018-06-02T00:24:53.010Z,14.80
2018-06-02T00:27:20.562Z,14.80
2018-06-02T00:29:48.091Z,14.80
2018-06-02T00:32:15.625Z,14.80
2018-06-02T00:34:43.142Z,14.80
2018-06-02T00:37:10.685Z,14.80
2018-06-02T00:39:38.215Z,14.90
2018-06-02T00:42:05.754Z,15.00
2018-06-02T00:44:33.275Z,15.00
2018-06-02T00:47:00.820Z,15.00
2018-06-02T00:49:28.338Z,15.00
2018-06-02T00:51:55.900Z,15.10
2018-06-02T00:54:35.086Z,15.10
2018-06-02T00:57:02.631Z,15.20
2018-06-02T00:59:30.146Z,15.20
2018-06-02T01:01:57.702Z,15.20
2018-06-02T01:04:25.223Z,15.20
2018-06-02T01:06:53.506Z,15.30
2018-06-02T01:09:21.810Z,15.30
2018-06-02T01:11:49.344Z,15.30
2018-06-02T01:14:16.894Z,15.40
2018-06-02T01:16:45.183Z,15.40
2018-06-02T01:19:13.487Z,15.40
2018-06-02T01:21:41.612Z,15.40
2018-06-02T01:24:10.166Z,15.40
2018-06-02T01:26:37.695Z,15.50
2018-06-02T01:29:05.229Z,15.40
2018-06-02T01:31:33.505Z,15.40
2018-06-02T01:34:01.817Z,15.40
2018-06-02T01:36:29.334Z,15.40
2018-06-02T01:38:57.642Z,15.40
2018-06-02T01:41:25.154Z,15.40
2018-06-02T01:43:52.690Z,15.40
2018-06-02T01:46:20.205Z,15.30
2018-06-02T01:48:47.745Z,15.20
2018-06-02T01:51:15.260Z,15.20
2018-06-02T01:53:42.825Z,15.20
2018-06-02T01:56:10.346Z,15.10
2018-06-02T01:58:37.898Z,15.10
2018-06-02T02:01:05.411Z,15.10
2018-06-02T02:03:32.953Z,15.20
2018-06-02T02:06:00.468Z,15.20
2018-06-02T02:08:28.002Z,15.10
2018-06-02T02:10:56.299Z,15.10
2018-06-02T02:13:23.841Z,15.10
2018-06-02T02:15:52.129Z,15.20
2018-06-02T02:18:19.674Z,15.10
2018-06-02T02:20:47.971Z,15.10
2018-06-02T02:23:15.510Z,15.10
2018-06-02T02:25:43.794Z,15.10
2018-06-02T02:28:11.346Z,15.00
2018-06-02T02:30:39.628Z,15.20
2018-06-02T02:33:07.182Z,15.20
2018-06-02T02:35:34.715Z,15.20
2018-06-02T02:38:02.282Z,15.30
2018-06-02T02:40:29.810Z,15.30
2018-06-02T02:42:57.369Z,15.20
2018-06-02T02:45:24.906Z,15.20
2018-06-02T02:47:52.451Z,15.30
2018-06-02T02:50:19.998Z,15.40
2018-06-02T02:52:47.514Z,15.30
2018-06-02T02:55:15.062Z,15.20
2018-06-02T02:57:42.608Z,15.20
2018-06-02T03:00:10.151Z,15.20
2018-06-02T03:02:37.662Z,15.20
2018-06-02T03:05:05.197Z,15.20
2018-06-02T03:07:32.721Z,15.20
2018-06-02T03:10:00.269Z,15.10
2018-06-02T03:12:27.786Z,15.10
2018-06-02T03:14:55.331Z,15.10
2018-06-02T03:17:22.859Z,15.10
2018-06-02T03:19:50.409Z,15.20
2018-06-02T03:22:17.938Z,15.20
2018-06-02T03:24:46.254Z,15.20
2018-06-02T03:27:13.774Z,15.20
2018-06-02T03:29:42.082Z,15.00
2018-06-02T03:32:09.610Z,15.00
2018-06-02T03:34:37.926Z,15.10
2018-06-02T03:37:05.473Z,15.10
2018-06-02T03:39:33.012Z,15.20
2018-06-02T03:42:01.308Z,15.20
2018-06-02T03:44:28.859Z,15.20
2018-06-02T03:46:56.374Z,15.20
2018-06-02T03:49:23.909Z,15.20
2018-06-02T03:51:51.421Z,15.20
2018-06-02T03:54:19.723Z,15.30
2018-06-02T03:56:47.282Z,15.30
2018-06-02T03:59:14.821Z,15.30
2018-06-02T04:01:42.343Z,15.30
2018-06-02T04:04:09.893Z,15.30
2018-06-02T04:06:37.416Z,15.30
2018-06-02T04:09:04.957Z,15.20
2018-06-02T04:11:33.238Z,15.20
2018-06-02T04:14:00.780Z,15.20
2018-06-02T04:16:28.285Z,15.30
2018-06-02T04:18:55.828Z,15.20
2018-06-02T04:21:23.345Z,15.30
2018-06-02T04:23:51.666Z,15.30
2018-06-02T04:26:19.179Z,15.30
2018-06-02T04:28:47.476Z,15.20
2018-06-02T04:31:15.023Z,15.20
2018-06-02T04:33:43.307Z,15.20
2018-06-02T04:36:10.846Z,15.20
2018-06-02T04:38:39.130Z,15.10
2018-06-02T04:41:07.449Z,15.20
2018-06-02T04:43:34.967Z,15.20
2018-06-02T04:46:02.516Z,15.30
2018-06-02T04:48:30.818Z,15.20
2018-06-02T04:50:58.407Z,15.20
2018-06-02T04:53:25.938Z,15.20
2018-06-02T04:55:53.491Z,15.20
2018-06-02T04:58:21.063Z,15.30
2018-06-02T05:00:48.623Z,15.20
2018-06-02T05:03:16.146Z,15.30
2018-06-02T05:05:44.450Z,15.30
2018-06-02T05:08:11.963Z,15.30
2018-06-02T05:10:39.509Z,15.30
2018-06-02T05:13:07.026Z,15.30
2018-06-02T05:15:34.583Z,15.30
2018-06-02T05:18:02.098Z,15.30
2018-06-02T05:20:29.646Z,15.30
2018-06-02T05:22:57.166Z,15.30
2018-06-02T05:25:24.713Z,15.40
2018-06-02T05:27:52.227Z,15.60
2018-06-02T05:30:19.770Z,15.70
2018-06-02T05:32:47.305Z,15.60
2018-06-02T05:35:14.863Z,15.60
2018-06-02T05:37:42.383Z,15.60
2018-06-02T05:40:10.702Z,15.70
2018-06-02T05:42:38.225Z,15.60
2018-06-02T05:45:06.534Z,15.70
2018-06-02T05:47:34.062Z,15.70
2018-06-02T05:50:01.616Z,15.70
2018-06-02T05:52:29.138Z,15.60
2018-06-02T05:54:56.679Z,15.50
2018-06-02T05:57:24.201Z,15.40
2018-06-02T05:59:51.803Z,15.40
2018-06-02T06:02:19.290Z,15.60
2018-06-02T06:04:47.599Z,15.80
2018-06-02T06:07:15.122Z,15.70
2018-06-02T06:09:43.397Z,15.90
2018-06-02T06:12:11.706Z,15.80
2018-06-02T06:14:39.234Z,15.80
2018-06-02T06:17:07.541Z,16.00
2018-06-02T06:19:35.078Z,16.00
2018-06-02T06:22:03.383Z,16.10
2018-06-02T06:24:30.905Z,16.00
2018-06-02T06:26:59.263Z,16.20
2018-06-02T06:29:26.753Z,16.10
2018-06-02T06:31:54.302Z,16.00
2018-06-02T06:34:22.586Z,16.20
2018-06-02T06:36:50.892Z,16.40
2018-06-02T06:39:18.417Z,16.40
2018-06-02T06:41:46.726Z,16.50
2018-06-02T06:44:14.250Z,16.40
2018-06-02T06:46:42.561Z,16.80
2018-06-02T06:49:10.103Z,16.80
2018-06-02T06:51:37.646Z,16.50
2018-06-02T06:54:05.927Z,16.40
2018-06-02T06:56:33.472Z,16.40
2018-06-02T06:59:01.751Z,16.50
2018-06-02T07:01:30.058Z,16.70
2018-06-02T07:03:57.582Z,16.80
2018-06-02T07:06:25.885Z,17.00
2018-06-02T07:08:53.466Z,17.00
2018-06-02T07:11:20.979Z,16.90
2018-06-02T07:13:49.257Z,16.60
2018-06-02T07:16:16.795Z,16.60
2018-06-02T07:18:44.326Z,16.60
2018-06-02T07:21:11.878Z,16.80
2018-06-02T07:23:39.410Z,17.20
2018-06-02T07:26:06.953Z,17.60
2018-06-02T07:28:35.248Z,17.50
2018-06-02T07:31:02.785Z,17.50
2018-06-02T07:33:31.063Z,17.80
2018-06-02T07:35:58.658Z,17.80
2018-06-02T07:38:26.149Z,17.90
2018-06-02T07:40:53.702Z,17.80
2018-06-02T07:43:21.219Z,18.10
2018-06-02T07:45:49.489Z,18.40
2018-06-02T07:48:17.005Z,18.60
2018-06-02T07:50:44.655Z,18.80
2018-06-02T07:53:12.166Z,18.70
2018-06-02T07:55:39.712Z,18.50
2018-06-02T07:58:07.454Z,18.40
2018-06-02T08:00:35.733Z,18.60
2018-06-02T08:03:04.766Z,18.50
2018-06-02T08:05:32.282Z,18.40
2018-06-02T08:08:00.587Z,18.50
2018-06-02T08:10:28.113Z,18.50
2018-06-02T08:12:56.419Z,18.70
2018-06-02T08:15:23.929Z,18.70
2018-06-02T08:17:51.483Z,18.60
2018-06-02T08:20:18.997Z,18.60
2018-06-02T08:22:46.533Z,18.70
2018-06-02T08:25:14.810Z,18.60
2018-06-02T08:27:43.140Z,18.50
2018-06-02T08:30:10.683Z,18.50
2018-06-02T08:32:38.230Z,18.60
2018-06-02T08:35:05.738Z,18.30
2018-06-02T08:37:33.294Z,18.30
2018-06-02T08:40:00.825Z,18.40
2018-06-02T08:42:28.370Z,18.50
2018-06-02T08:44:55.895Z,18.70
2018-06-02T08:47:24.198Z,18.70
2018-06-02T08:49:51.711Z,18.70
2018-06-02T08:52:20.035Z,19.40
2018-06-02T08:54:47.554Z,19.40
2018-06-02T08:57:15.872Z,19.50
2018-06-02T08:59:43.390Z,19.50
2018-06-02T09:02:10.933Z,19.60
2018-06-02T09:04:38.446Z,19.40
2018-06-02T09:07:05.970Z,19.40
2018-06-02T09:09:33.478Z,19.40
2018-06-02T09:12:01.015Z,19.40
2018-06-02T09:14:28.525Z,19.70
2018-06-02T09:16:56.059Z,19.60
2018-06-02T09:19:23.573Z,19.70
2018-06-02T09:21:51.183Z,20.10
2018-06-02T09:24:19.401Z,20.50
2018-06-02T09:26:46.945Z,20.60
2018-06-02T09:29:15.250Z,20.30
2018-06-02T09:31:42.791Z,20.30
2018-06-02T09:34:10.315Z,20.40
2018-06-02T09:36:37.822Z,20.40
2018-06-02T09:39:05.363Z,20.60
2018-06-02T09:41:32.883Z,20.80
2018-06-02T09:44:00.426Z,20.50
2018-06-02T09:46:27.938Z,20.60
2018-06-02T09:48:55.487Z,20.90
2018-06-02T09:51:23.760Z,21.40
2018-06-02T09:53:51.289Z,21.40
2018-06-02T09:56:18.812Z,21.00
2018-06-02T09:58:46.341Z,21.00
2018-06-02T10:01:14.618Z,22.10
2018-06-02T10:03:42.174Z,22.00
2018-06-02T10:06:10.450Z,22.60
2018-06-02T10:08:38.755Z,23.10
2018-06-02T10:11:06.273Z,23.00
2018-06-02T10:13:33.814Z,23.30
2018-06-02T10:16:01.334Z,22.70
2018-06-02T10:18:28.866Z,23.20
2018-06-02T10:20:57.143Z,22.50
2018-06-02T10:23:25.439Z,22.20
2018-06-02T10:25:52.950Z,22.10
2018-06-02T10:28:20.490Z,22.90
2018-06-02T10:30:48.001Z,22.20
2018-06-02T10:33:15.560Z,22.30
2018-06-02T10:35:43.150Z,23.00
2018-06-02T10:38:10.628Z,23.30
2018-06-02T10:40:38.154Z,23.50
2018-06-02T10:43:05.689Z,24.40
2018-06-02T10:45:33.203Z,24.50
2018-06-02T10:48:00.738Z,24.90
2018-06-02T10:50:28.258Z,25.30
2018-06-02T10:52:56.550Z,24.30
2018-06-02T10:55:24.071Z,24.20
2018-06-02T10:57:54.388Z,24.20
2018-06-02T11:00:23.215Z,23.10
2018-06-02T11:02:50.750Z,23.10
2018-06-02T11:05:19.027Z,24.00
2018-06-02T11:07:47.306Z,25.80
2018-06-02T11:10:15.600Z,24.70
2018-06-02T11:12:43.119Z,24.70
2018-06-02T11:15:11.443Z,26.70
2018-06-02T11:17:38.970Z,26.70
2018-06-02T11:20:07.278Z,25.30
2018-06-02T11:22:34.796Z,25.30
2018-06-02T11:25:03.113Z,26.00
2018-06-02T11:27:30.627Z,25.90
2018-06-02T11:29:58.154Z,26.60
2018-06-02T11:32:25.671Z,26.20
2018-06-02T11:34:53.219Z,26.20
2018-06-02T11:37:21.499Z,26.00
2018-06-02T11:39:49.805Z,27.00
2018-06-02T11:42:17.315Z,27.00
2018-06-02T11:44:44.870Z,27.30
2018-06-02T11:47:12.382Z,26.80
2018-06-02T11:49:39.930Z,25.50
2018-06-02T11:52:07.455Z,25.40
2018-06-02T11:54:35.752Z,25.40
2018-06-02T11:57:03.274Z,25.40
2018-06-02T11:59:30.824Z,25.50
2018-06-02T12:01:58.355Z,25.00
2018-06-02T12:04:25.897Z,25.70
2018-06-02T12:06:53.471Z,26.50
2018-06-02T12:09:21.742Z,25.90
2018-06-02T12:11:49.250Z,25.80
2018-06-02T12:14:16.801Z,24.90
2018-06-02T12:16:44.327Z,23.80
2018-06-02T12:19:11.889Z,24.30
2018-06-02T12:21:39.406Z,25.00
2018-06-02T12:24:06.958Z,24.60
2018-06-02T12:26:35.231Z,23.10
2018-06-02T12:29:03.530Z,23.40
2018-06-02T12:31:31.053Z,23.30
2018-06-02T12:33:58.597Z,23.80
2018-06-02T12:36:26.110Z,24.00
2018-06-02T12:38:53.655Z,24.40
2018-06-02T12:41:21.191Z,24.80
2018-06-02T12:43:49.483Z,25.30
2018-06-02T12:46:17.784Z,25.10
2018-06-02T12:48:45.290Z,25.10
2018-06-02T12:51:12.826Z,25.50
2018-06-02T12:53:40.365Z,25.80
2018-06-02T12:56:07.894Z,25.20
2018-06-02T12:58:35.419Z,24.60
2018-06-02T13:01:02.954Z,25.20
2018-06-02T13:03:30.468Z,25.90
2018-06-02T13:05:58.006Z,25.60
2018-06-02T13:08:26.297Z,25.40
2018-06-02T13:10:54.617Z,26.00
2018-06-02T13:13:22.131Z,25.90
2018-06-02T13:15:50.435Z,26.00
2018-06-02T13:18:17.942Z,26.00
2018-06-02T13:20:45.478Z,26.10
2018-06-02T13:23:12.994Z,26.10
2018-06-02T13:25:40.547Z,25.70
2018-06-02T13:28:08.062Z,25.80
2018-06-02T13:30:35.596Z,26.10
2018-06-02T13:33:03.107Z,26.60
2018-06-02T13:35:31.418Z,28.50
2018-06-02T13:37:58.937Z,28.50
2018-06-02T13:40:27.221Z,26.40
2018-06-02T13:42:55.540Z,26.10
2018-06-02T13:45:23.046Z,26.10
2018-06-02T13:47:51.353Z,30.60
2018-06-02T13:50:18.858Z,30.50
2018-06-02T13:52:46.411Z,31.20
2018-06-02T13:55:13.935Z,28.90
2018-06-02T13:57:41.475Z,29.30
2018-06-02T14:00:08.995Z,28.10
2018-06-02T14:02:36.533Z,27.50
2018-06-02T14:05:04.037Z,28.10
2018-06-02T14:07:31.573Z,28.20
2018-06-02T14:09:59.101Z,30.30
2018-06-02T14:12:26.642Z,33.10
2018-06-02T14:14:54.148Z,33.00
2018-06-02T14:17:21.683Z,31.70
2018-06-02T14:19:49.205Z,32.30
2018-06-02T14:22:16.736Z,32.90
2018-06-02T14:24:44.252Z,31.50
2018-06-02T14:27:11.796Z,30.00
2018-06-02T14:29:39.312Z,28.70
2018-06-02T14:32:07.716Z,26.60
2018-06-02T14:34:35.646Z,26.50
2018-06-02T14:37:03.169Z,26.30
2018-06-02T14:39:30.721Z,26.10
2018-06-02T14:41:58.255Z,26.30
2018-06-02T14:44:25.807Z,26.30
2018-06-02T14:46:53.329Z,25.60
2018-06-02T14:49:20.921Z,25.30
2018-06-02T14:51:48.390Z,25.90
2018-06-02T14:54:15.917Z,28.00
2018-06-02T14:56:44.191Z,25.50
2018-06-02T14:59:12.506Z,25.10
2018-06-02T15:01:40.029Z,25.10
2018-06-02T15:04:08.326Z,24.90
2018-06-02T15:06:35.834Z,24.90
2018-06-02T15:09:03.369Z,24.90
2018-06-02T15:11:30.983Z,24.70
2018-06-02T15:13:59.293Z,24.30
2018-06-02T15:16:26.810Z,24.20
2018-06-02T15:18:54.347Z,24.90
2018-06-02T15:21:21.860Z,27.70
2018-06-02T15:23:49.370Z,29.30
2018-06-02T15:26:17.846Z,31.00
2018-06-02T15:28:45.361Z,31.20
2018-06-02T15:31:12.895Z,31.90
2018-06-02T15:33:41.174Z,27.90
2018-06-02T15:36:08.714Z,27.80
2018-06-02T15:38:36.230Z,26.80
2018-06-02T15:41:03.773Z,25.70
2018-06-02T15:43:31.281Z,25.50
2018-06-02T15:45:58.810Z,25.70
2018-06-02T15:48:26.309Z,25.60
2018-06-02T15:50:54.606Z,25.40
2018-06-02T15:53:22.115Z,25.30
2018-06-02T15:55:49.649Z,25.10
2018-06-02T15:58:17.177Z,24.90
2018-06-02T16:00:44.713Z,24.70
2018-06-02T16:03:12.227Z,24.20
2018-06-02T16:05:39.762Z,23.70
2018-06-02T16:08:07.288Z,23.70
2018-06-02T16:10:35.593Z,23.10
2018-06-02T16:13:03.119Z,23.10
2018-06-02T16:15:31.434Z,23.40
2018-06-02T16:18:01.078Z,23.40
2018-06-02T16:20:28.613Z,23.30
2018-06-02T16:22:56.131Z,23.40
2018-06-02T16:25:24.429Z,23.20
2018-06-02T16:27:51.954Z,23.20
2018-06-02T16:30:19.503Z,23.20
2018-06-02T16:32:47.009Z,23.30
2018-06-02T16:35:14.529Z,23.30
2018-06-02T16:37:42.077Z,23.10
2018-06-02T16:40:09.654Z,23.20
2018-06-02T16:42:37.150Z,23.20
2018-06-02T16:45:04.668Z,23.10
2018-06-02T16:47:32.965Z,22.80
2018-06-02T16:50:00.482Z,22.80
2018-06-02T16:52:28.022Z,22.70
2018-06-02T16:54:55.542Z,22.60
2018-06-02T16:57:23.066Z,22.50
2018-06-02T16:59:50.577Z,22.30
2018-06-02T17:02:18.130Z,22.30
2018-06-02T17:04:46.410Z,22.10
2018-06-02T17:07:13.946Z,22.10
2018-06-02T17:09:41.451Z,22.00
2018-06-02T17:12:08.981Z,21.90
2018-06-02T17:14:36.501Z,21.90
2018-06-02T17:17:04.811Z,21.80
2018-06-02T17:19:32.332Z,21.80
2018-06-02T17:22:00.635Z,21.70
2018-06-02T17:24:28.152Z,21.60
2018-06-02T17:26:55.691Z,21.60
2018-06-02T17:29:23.228Z,21.50
2018-06-02T17:31:50.764Z,21.50
2018-06-02T17:34:18.269Z,21.50
2018-06-02T17:36:45.812Z,21.40
2018-06-02T17:39:13.331Z,21.30
2018-06-02T17:41:40.898Z,21.30
2018-06-02T17:44:08.409Z,21.20
2018-06-02T17:46:35.947Z,21.00
2018-06-02T17:49:03.474Z,21.00
2018-06-02T17:51:31.018Z,20.90
2018-06-02T17:53:59.316Z,20.70
2018-06-02T17:56:26.834Z,20.60
2018-06-02T17:58:54.382Z,20.60
2018-06-02T18:01:21.902Z,20.60
2018-06-02T18:03:49.443Z,20.60
2018-06-02T18:06:16.962Z,20.50
2018-06-02T18:08:44.489Z,20.30
2018-06-02T18:11:11.993Z,20.30
2018-06-02T18:13:40.294Z,20.10
2018-06-02T18:16:07.815Z,20.10
2018-06-02T18:18:36.135Z,20.00
2018-06-02T18:21:03.644Z,19.90
2018-06-02T18:23:31.182Z,19.90
2018-06-02T18:25:58.709Z,19.80
2018-06-02T18:28:26.252Z,19.80
2018-06-02T18:30:53.761Z,19.70
2018-06-02T18:33:21.320Z,19.70
2018-06-02T18:35:48.839Z,19.60
2018-06-02T18:38:16.370Z,19.50
2018-06-02T18:40:44.643Z,19.50
2018-06-02T18:43:12.177Z,19.50
2018-06-02T18:45:39.698Z,19.40
2018-06-02T18:48:07.230Z,19.30
2018-06-02T18:50:34.741Z,19.30
2018-06-02T18:53:02.273Z,19.20
2018-06-02T18:55:29.785Z,19.20
2018-06-02T18:57:58.085Z,19.00
2018-06-02T19:00:25.614Z,19.00
2018-06-02T19:02:53.931Z,18.80
2018-06-02T19:05:21.435Z,18.80
2018-06-02T19:07:48.961Z,18.70
2018-06-02T19:10:16.508Z,18.60
2018-06-02T19:12:44.022Z,18.60
2018-06-02T19:15:11.566Z,18.60
2018-06-02T19:17:39.074Z,18.60
2018-06-02T19:20:06.607Z,18.50
2018-06-02T19:22:34.144Z,18.50
2018-06-02T19:25:01.669Z,18.50
2018-06-02T19:27:29.185Z,18.50
2018-06-02T19:29:56.710Z,18.50
2018-06-02T19:32:24.217Z,18.50
2018-06-02T19:35:29.406Z,18.50
2018-06-02T19:37:58.073Z,18.50
2018-06-02T19:40:26.519Z,18.50
2018-06-02T19:42:54.943Z,18.40
2018-06-02T19:45:23.404Z,18.40
2018-06-02T19:47:51.826Z,18.30
2018-06-02T19:50:20.297Z,18.20
2018-06-02T19:52:48.709Z,18.10
2018-06-02T19:55:17.161Z,18.00
2018-06-02T19:57:45.605Z,17.90
2018-06-02T20:00:14.053Z,17.80
2018-06-02T20:02:44.903Z,17.80
2018-06-02T20:05:13.346Z,17.70
2018-06-02T20:10:09.984Z,17.50
2018-06-02T20:12:38.438Z,17.50
2018-06-02T20:15:06.928Z,17.40
2018-06-02T20:17:35.346Z,17.30
2018-06-02T20:22:32.255Z,17.10
2018-06-02T20:25:03.494Z,17.10
2018-06-02T20:27:34.477Z,17.00
2018-06-02T20:30:03.182Z,17.00
2018-06-02T20:32:31.583Z,16.90
2018-06-02T20:35:00.009Z,16.80
2018-06-02T20:37:28.431Z,16.80
2018-06-02T20:39:56.900Z,16.70
2018-06-02T20:42:25.382Z,16.60
2018-06-02T20:44:53.818Z,16.50
2018-06-02T20:47:22.226Z,16.40
2018-06-02T20:52:18.821Z,16.30
2018-06-02T20:54:47.268Z,16.20
2018-06-02T20:57:15.673Z,16.20
2018-06-02T20:59:44.133Z,16.20
2018-06-02T21:02:12.536Z,16.30
2018-06-02T21:04:40.994Z,16.30
2018-06-02T21:07:09.780Z,16.20
2018-06-02T21:09:38.239Z,16.20
2018-06-02T21:12:06.711Z,16.10
2018-06-02T21:14:35.181Z,16.10
2018-06-02T21:17:03.611Z,16.10
2018-06-02T21:19:32.051Z,16.00
2018-06-02T21:22:00.471Z,16.00
2018-06-02T21:24:28.950Z,15.90
2018-06-02T21:26:57.394Z,15.80
2018-06-02T21:29:25.810Z,15.70
2018-06-02T21:31:54.290Z,15.60
2018-06-02T21:34:22.722Z,15.60
2018-06-02T21:36:51.528Z,15.50
2018-06-02T21:41:48.085Z,15.60
2018-06-02T21:46:44.702Z,15.50
2018-06-02T21:49:13.143Z,15.30
2018-06-02T21:51:41.595Z,15.30
2018-06-02T21:54:10.083Z,15.20
2018-06-02T21:56:38.553Z,15.20
2018-06-02T22:01:35.838Z,15.00
2018-06-02T22:04:04.317Z,15.00
2018-06-02T22:06:32.820Z,15.00
2018-06-02T22:09:01.301Z,15.10
2018-06-02T22:11:29.827Z,15.10
2018-06-02T22:13:58.309Z,15.10
2018-06-02T22:16:26.766Z,15.00
2018-06-02T22:18:55.179Z,15.00
2018-06-02T22:23:51.762Z,15.00
2018-06-02T22:26:20.202Z,15.00
2018-06-02T22:28:50.461Z,15.00
2018-06-02T22:31:18.906Z,15.00
2018-06-02T22:36:15.573Z,15.00
2018-06-02T22:38:43.962Z,14.90
2018-06-02T22:41:12.446Z,14.80
2018-06-02T22:43:40.886Z,14.80
2018-06-02T22:46:09.334Z,14.70
2018-06-02T22:48:37.793Z,14.60
2018-06-02T22:51:06.274Z,14.50
2018-06-02T22:53:34.809Z,14.40
2018-06-02T22:56:03.340Z,14.40
2018-06-02T22:58:31.848Z,14.40
2018-06-02T23:01:00.429Z,14.30
2018-06-02T23:03:28.967Z,14.30
2018-06-02T23:05:57.654Z,14.30
2018-06-02T23:08:26.155Z,14.30
2018-06-02T23:10:54.707Z,14.30
2018-06-02T23:13:23.152Z,14.30
2018-06-02T23:15:51.770Z,14.30
2018-06-02T23:18:20.210Z,14.20
2018-06-02T23:20:48.678Z,14.20
2018-06-02T23:23:17.099Z,14.20
2018-06-02T23:25:45.528Z,14.20
2018-06-02T23:28:13.983Z,14.20
2018-06-02T23:30:42.483Z,14.20
2018-06-02T23:33:10.914Z,14.20
2018-06-02T23:35:39.360Z,14.20
2018-06-02T23:38:07.823Z,14.20
2018-06-02T23:40:36.259Z,14.10
2018-06-02T23:43:04.712Z,14.10
2018-06-02T23:45:33.147Z,14.10
2018-06-02T23:48:01.591Z,14.00
2018-06-02T23:50:30.268Z,14.00
2018-06-02T23:52:58.728Z,13.90
2018-06-02T23:55:27.176Z,13.90
2018-06-02T23:57:55.641Z,13.90
